createdAt,value
2023-09-06T06:59:52.138Z,91.75
2023-09-06T07:00:53.243Z,90.65
2023-09-06T07:01:53.327Z,92.06
2023-09-06T07:02:53.529Z,91.82
2023-09-06T07:03:53.514Z,93.02
2023-09-06T07:04:54.148Z,92.61
2023-09-06T07:05:53.593Z,91.97
2023-09-06T07:06:53.668Z,91.77
2023-09-06T07:07:53.799Z,92.47
2023-09-06T07:08:53.860Z,90.56
2023-09-06T07:09:53.920Z,90.72
2023-09-06T07:10:54.030Z,90.52
2023-09-06T07:11:54.237Z,90.82
2023-09-06T07:12:54.259Z,89.67
2023-09-06T07:13:54.359Z,89.98
2023-09-06T07:14:54.392Z,88.67
2023-09-06T07:15:54.515Z,89.27
2023-09-06T07:16:54.681Z,88.97
2023-09-06T07:17:54.970Z,87.77
2023-09-06T07:18:54.646Z,89.67
2023-09-06T07:19:54.755Z,89.47
2023-09-06T07:20:54.866Z,87.66
2023-09-06T07:21:54.901Z,88.02
2023-09-06T07:22:56.108Z,89.43
2023-09-06T07:23:55.068Z,87.93
2023-09-06T07:24:55.169Z,87.02
2023-09-06T07:25:55.292Z,85.31
2023-09-06T07:26:55.323Z,86.52
2023-09-06T07:27:55.446Z,87.93
2023-09-06T07:28:55.565Z,88.89
2023-09-06T07:29:55.576Z,87.08
2023-09-06T07:30:55.718Z,88.89
2023-09-06T07:31:55.750Z,86.38
2023-09-06T07:32:55.985Z,87.58
2023-09-06T07:33:56.001Z,87.74
2023-09-06T07:34:56.051Z,87.94
2023-09-06T07:35:56.112Z,85.63
2023-09-06T07:36:56.155Z,86.30
2023-09-06T07:37:56.290Z,86.40
2023-09-06T07:38:56.656Z,83.39
2023-09-06T07:39:56.509Z,84.49
2023-09-06T07:40:56.525Z,86.66
2023-09-06T07:41:56.543Z,86.46
2023-09-06T07:42:57.605Z,85.05
2023-09-06T07:43:56.719Z,84.55
2023-09-06T07:44:57.513Z,85.11
2023-09-06T07:45:56.883Z,83.21
2023-09-06T07:46:57.226Z,84.81
2023-09-06T07:47:57.127Z,84.21
2023-09-06T07:48:57.256Z,83.31
2023-09-06T07:49:57.258Z,84.27
2023-09-06T07:50:57.705Z,83.17
2023-09-06T07:51:57.363Z,84.57
2023-09-06T07:52:57.452Z,81.47
2023-09-06T07:53:57.518Z,82.37
2023-09-06T07:54:57.609Z,82.97
2023-09-06T07:55:57.731Z,83.73
2023-09-06T07:56:57.754Z,82.63
2023-09-06T07:57:57.843Z,83.03
2023-09-06T07:58:57.987Z,82.63
2023-09-06T07:59:58.022Z,81.19
2023-09-06T08:01:15.323Z,82.89
2023-09-06T08:01:58.233Z,81.09
2023-09-06T08:02:58.344Z,81.19
2023-09-06T08:03:58.423Z,80.09
2023-09-06T08:04:58.485Z,79.85
2023-09-06T08:05:58.589Z,80.05
2023-09-06T08:06:58.734Z,81.05
2023-09-06T08:07:58.709Z,79.46
2023-09-06T08:08:58.899Z,78.85
2023-09-06T08:09:58.840Z,79.02
2023-09-06T08:10:58.914Z,76.92
2023-09-06T08:11:59.024Z,79.22
2023-09-06T08:12:59.096Z,79.22
2023-09-06T08:13:59.387Z,80.62
2023-09-06T08:14:59.297Z,79.48
2023-09-06T08:15:59.981Z,77.48
2023-09-06T08:16:59.432Z,76.48
2023-09-06T08:17:59.663Z,77.55
2023-09-06T08:18:59.628Z,76.27
2023-09-06T08:19:59.650Z,73.97
2023-09-06T08:20:59.775Z,70.19
2023-09-06T08:21:59.829Z,68.93
2023-09-06T08:22:59.921Z,68.66
2023-09-06T08:23:59.989Z,66.65
2023-09-06T08:25:00.064Z,66.42
2023-09-06T08:26:00.156Z,65.22
2023-09-06T08:27:00.296Z,67.47
2023-09-06T08:28:00.319Z,68.80
2023-09-06T08:29:00.403Z,71.01
2023-09-06T08:30:00.742Z,69.92
2023-09-06T08:31:00.865Z,71.45
2023-09-06T08:32:00.772Z,72.14
2023-09-06T08:33:00.923Z,73.54
2023-09-06T08:34:00.948Z,73.74
2023-09-06T08:35:00.980Z,70.45
2023-09-06T08:36:01.078Z,70.95
2023-09-06T08:37:01.097Z,72.34
2023-09-06T08:38:01.173Z,71.05
2023-09-06T08:39:01.522Z,71.95
2023-09-06T08:40:01.393Z,71.95
2023-09-06T08:41:01.418Z,72.55
2023-09-06T08:42:01.663Z,71.35
2023-09-06T08:43:01.589Z,73.44
2023-09-06T08:44:01.764Z,73.44
2023-09-06T08:45:01.759Z,73.77
2023-09-06T08:46:01.920Z,71.28
2023-09-06T08:47:01.987Z,71.78
2023-09-06T08:48:02.129Z,75.23
2023-09-06T08:49:02.180Z,71.25
2023-09-06T08:50:02.160Z,73.70
2023-09-06T08:51:02.235Z,71.51
2023-09-06T08:52:02.310Z,71.72
2023-09-06T08:53:02.415Z,74.26
2023-09-06T08:54:02.474Z,68.63
2023-09-06T08:55:02.576Z,69.59
2023-09-06T08:56:02.645Z,66.48
2023-09-06T08:57:02.717Z,67.38
2023-09-06T08:58:02.871Z,68.17
2023-09-06T08:59:02.889Z,67.31
2023-09-06T09:00:02.963Z,68.90
2023-09-06T09:01:03.139Z,66.81
2023-09-06T09:02:03.117Z,69.03
2023-09-06T09:03:03.454Z,69.43
2023-09-06T09:04:03.471Z,69.92
2023-09-06T09:05:17.663Z,69.32
2023-09-06T09:06:03.450Z,70.02
2023-09-06T09:07:03.585Z,70.48
2023-09-06T09:08:03.601Z,67.67
2023-09-06T09:09:03.706Z,67.47
2023-09-06T09:10:03.777Z,69.65
2023-09-06T09:11:03.821Z,69.53
2023-09-06T09:12:03.921Z,68.90
2023-09-06T09:13:03.991Z,65.26
2023-09-06T09:14:04.057Z,64.90
2023-09-06T09:15:17.560Z,63.59
2023-09-06T09:16:05.262Z,58.87
2023-09-06T09:17:04.278Z,57.63
2023-09-06T09:18:04.337Z,57.08
2023-09-06T09:19:04.483Z,55.55
2023-09-06T09:20:04.480Z,55.23
2023-09-06T09:21:04.578Z,57.20
2023-09-06T09:22:05.490Z,55.37
2023-09-06T09:23:04.807Z,52.59
2023-09-06T09:24:04.813Z,52.20
2023-09-06T09:25:04.934Z,52.67
2023-09-06T09:26:05.000Z,53.11
2023-09-06T09:27:05.076Z,52.30
2023-09-06T09:28:05.238Z,50.04
2023-09-06T09:29:05.217Z,51.29
2023-09-06T09:30:05.319Z,49.63
2023-09-06T09:31:05.380Z,48.92
2023-09-06T09:32:05.461Z,50.49
2023-09-06T09:33:05.972Z,49.97
2023-09-06T09:34:05.625Z,48.68
2023-09-06T09:35:05.716Z,47.77
2023-09-06T09:36:05.805Z,47.21
2023-09-06T09:37:06.650Z,49.46
2023-09-06T09:38:06.047Z,47.87
2023-09-06T09:39:06.068Z,47.40
2023-09-06T09:40:06.178Z,48.24
2023-09-06T09:41:07.462Z,49.29
2023-09-06T09:42:06.301Z,49.73
2023-09-06T09:43:06.370Z,47.19
2023-09-06T09:44:06.446Z,46.78
2023-09-06T09:45:06.569Z,46.21
2023-09-06T09:46:06.674Z,47.63
2023-09-06T09:47:31.207Z,48.99
2023-09-06T09:48:06.802Z,49.36
2023-09-06T09:49:06.803Z,45.92
2023-09-06T09:50:07.022Z,44.26
2023-09-06T09:51:07.012Z,46.19
2023-09-06T09:52:07.058Z,47.46
2023-09-06T09:53:19.944Z,46.95
2023-09-06T09:54:07.210Z,45.00
2023-09-06T09:55:07.364Z,48.14
2023-09-06T09:56:07.330Z,45.78
2023-09-06T09:57:07.575Z,46.14
2023-09-06T09:58:07.504Z,45.25
2023-09-06T09:59:08.366Z,44.15
2023-09-06T10:00:07.684Z,45.59
2023-09-06T10:01:07.862Z,44.54
2023-09-06T10:02:07.885Z,42.10
2023-09-06T10:03:07.957Z,42.40
2023-09-06T10:04:08.196Z,42.57
2023-09-06T10:05:08.168Z,44.15
2023-09-06T10:06:08.123Z,41.71
2023-09-06T10:07:08.262Z,40.03
2023-09-06T10:08:08.268Z,41.30
2023-09-06T10:09:08.368Z,43.08
2023-09-06T10:10:08.455Z,42.08
2023-09-06T10:11:08.558Z,43.33
2023-09-06T10:12:08.613Z,40.13
2023-09-06T10:13:08.758Z,42.94
2023-09-06T10:14:08.825Z,40.03
2023-09-06T10:15:08.882Z,41.42
2023-09-06T10:16:09.333Z,40.64
2023-09-06T10:17:09.025Z,42.38
2023-09-06T10:18:09.159Z,40.80
2023-09-06T10:19:09.220Z,41.03
2023-09-06T10:20:09.279Z,40.47
2023-09-06T10:21:09.380Z,41.52
2023-09-06T10:22:09.501Z,41.35
2023-09-06T10:23:09.654Z,43.69
2023-09-06T10:24:09.597Z,46.21
2023-09-06T10:25:09.748Z,44.82
2023-09-06T10:26:09.791Z,42.14
2023-09-06T10:27:10.035Z,45.61
2023-09-06T10:28:10.080Z,47.22
2023-09-06T10:29:09.986Z,41.55
2023-09-06T10:30:10.078Z,39.80
2023-09-06T10:31:10.552Z,42.80
2023-09-06T10:32:10.282Z,40.93
2023-09-06T10:33:10.347Z,42.76
2023-09-06T10:34:10.442Z,44.12
2023-09-06T10:35:10.533Z,40.72
2023-09-06T10:36:10.997Z,41.22
2023-09-06T10:37:10.807Z,41.46
2023-09-06T10:38:10.730Z,39.22
2023-09-06T10:39:10.953Z,39.22
2023-09-06T10:40:10.989Z,39.34
2023-09-06T10:41:11.545Z,42.24
2023-09-06T10:42:11.060Z,40.85
2023-09-06T10:43:11.167Z,42.29
2023-09-06T10:44:11.287Z,40.52
2023-09-06T10:45:11.366Z,40.83
2023-09-06T10:46:11.580Z,42.41
2023-09-06T10:47:11.480Z,43.79
2023-09-06T10:48:11.670Z,43.01
2023-09-06T10:49:11.802Z,41.85
2023-09-06T10:50:11.727Z,40.58
2023-09-06T10:51:11.817Z,39.41
2023-09-06T10:52:11.950Z,42.04
2023-09-06T10:53:11.965Z,41.73
2023-09-06T10:54:12.056Z,42.97
2023-09-06T10:55:12.230Z,38.19
2023-09-06T10:56:12.199Z,39.26
2023-09-06T10:57:12.456Z,39.39
2023-09-06T10:58:12.375Z,42.70
2023-09-06T10:59:12.481Z,40.00
2023-09-06T11:00:12.518Z,43.29
2023-09-06T11:01:12.684Z,39.98
2023-09-06T11:02:12.976Z,42.10
2023-09-06T11:03:12.807Z,40.81
2023-09-06T11:04:12.860Z,42.18
2023-09-06T11:05:12.978Z,38.71
2023-09-06T11:06:13.077Z,39.22
2023-09-06T11:07:15.663Z,41.06
2023-09-06T11:08:13.236Z,40.60
2023-09-06T11:09:13.250Z,40.89
2023-09-06T11:10:13.434Z,40.64
2023-09-06T11:11:13.424Z,41.73
2023-09-06T11:12:13.527Z,42.69
2023-09-06T11:13:13.769Z,40.03
2023-09-06T11:14:13.698Z,41.67
2023-09-06T11:15:13.780Z,40.09
2023-09-06T11:16:14.115Z,39.61
2023-09-06T11:17:14.007Z,39.61
2023-09-06T11:18:14.098Z,43.52
2023-09-06T11:19:14.178Z,40.58
2023-09-06T11:20:14.265Z,41.83
2023-09-06T11:21:14.311Z,39.57
2023-09-06T11:22:14.432Z,39.65
2023-09-06T11:23:14.445Z,37.99
2023-09-06T11:24:14.561Z,38.39
2023-09-06T11:25:14.662Z,37.74
2023-09-06T11:26:14.748Z,39.98
2023-09-06T11:27:14.910Z,41.44
2023-09-06T11:28:14.913Z,39.29
2023-09-06T11:29:15.008Z,40.27
2023-09-06T11:30:15.074Z,40.08
2023-09-06T11:31:15.180Z,38.93
2023-09-06T11:32:15.965Z,38.57
2023-09-06T11:33:15.339Z,38.38
2023-09-06T11:34:15.647Z,40.41
2023-09-06T11:35:15.516Z,40.56
2023-09-06T11:36:15.616Z,37.95
2023-09-06T11:37:15.761Z,39.92
2023-09-06T11:38:15.778Z,41.26
2023-09-06T11:39:15.861Z,39.98
2023-09-06T11:40:16.088Z,38.98
2023-09-06T11:41:16.103Z,40.72
2023-09-06T11:42:16.110Z,41.13
2023-09-06T11:43:16.255Z,41.39
2023-09-06T11:44:16.415Z,40.89
2023-09-06T11:45:16.398Z,40.39
2023-09-06T11:46:16.503Z,36.29
2023-09-06T11:47:16.551Z,39.29
2023-09-06T11:48:16.636Z,39.08
2023-09-06T11:49:16.668Z,37.90
2023-09-06T11:50:16.718Z,36.18
2023-09-06T11:51:16.826Z,38.54
2023-09-06T11:52:16.979Z,36.91
2023-09-06T11:53:16.970Z,36.13
2023-09-06T11:54:17.137Z,37.10
2023-09-06T11:55:17.133Z,36.60
2023-09-06T11:56:17.238Z,37.96
2023-09-06T11:57:17.323Z,37.08
2023-09-06T11:58:17.382Z,36.22
2023-09-06T11:59:17.494Z,38.70
2023-09-06T12:00:17.566Z,39.76
2023-09-06T12:01:17.688Z,38.60
2023-09-06T12:02:17.686Z,37.70
2023-09-06T12:03:17.865Z,39.75
2023-09-06T12:04:18.013Z,38.48
2023-09-06T12:05:17.986Z,36.63
2023-09-06T12:06:18.075Z,38.09
2023-09-06T12:07:18.117Z,38.37
2023-09-06T12:08:18.206Z,36.15
2023-09-06T12:09:18.320Z,37.35
2023-09-06T12:10:18.377Z,41.05
2023-09-06T12:11:18.508Z,37.64
2023-09-06T12:12:18.527Z,38.46
2023-09-06T12:13:18.652Z,39.62
2023-09-06T12:14:18.694Z,37.84
2023-09-06T12:15:18.773Z,38.71
2023-09-06T12:16:18.949Z,37.35
2023-09-06T12:17:21.234Z,36.71
2023-09-06T12:18:19.141Z,41.55
2023-09-06T12:19:20.165Z,37.35
2023-09-06T12:20:19.339Z,40.54
2023-09-06T12:21:19.382Z,38.67
2023-09-06T12:22:19.389Z,37.51
2023-09-06T12:23:19.559Z,37.90
2023-09-06T12:24:19.521Z,38.56
2023-09-06T12:25:19.553Z,38.17
2023-09-06T12:26:19.698Z,35.53
2023-09-06T12:27:19.740Z,39.49
2023-09-06T12:28:19.773Z,35.41
2023-09-06T12:29:19.924Z,36.85
2023-09-06T12:30:19.926Z,35.53
2023-09-06T12:31:20.131Z,37.08
2023-09-06T12:32:20.108Z,37.96
2023-09-06T12:33:20.228Z,37.47
2023-09-06T12:34:20.277Z,37.88
2023-09-06T12:35:20.368Z,36.73
2023-09-06T12:36:20.528Z,37.60
2023-09-06T12:37:20.555Z,36.42
2023-09-06T12:38:20.634Z,37.01
2023-09-06T12:39:20.705Z,36.99
2023-09-06T12:40:20.822Z,36.69
2023-09-06T12:41:20.925Z,36.99
2023-09-06T12:42:20.972Z,36.93
2023-09-06T12:43:21.039Z,38.96
2023-09-06T12:44:21.118Z,37.02
2023-09-06T12:45:21.227Z,36.93
2023-09-06T12:46:21.317Z,36.32
2023-09-06T12:47:21.398Z,35.82
2023-09-06T12:48:21.598Z,36.60
2023-09-06T12:49:21.537Z,35.22
2023-09-06T12:50:21.635Z,35.33
2023-09-06T12:51:21.730Z,36.60
2023-09-06T12:52:21.819Z,36.19
2023-09-06T12:53:21.926Z,35.78
2023-09-06T12:54:21.964Z,35.90
2023-09-06T12:55:22.057Z,34.19
2023-09-06T12:56:22.166Z,36.60
2023-09-06T12:57:22.297Z,34.62
2023-09-06T12:58:22.331Z,35.69
2023-09-06T12:59:22.385Z,37.05
2023-09-06T13:00:22.472Z,36.54
2023-09-06T13:01:22.599Z,34.02
2023-09-06T13:02:22.688Z,35.83
2023-09-06T13:03:22.893Z,35.23
2023-09-06T13:04:22.894Z,34.09
2023-09-06T13:05:23.044Z,37.90
2023-09-06T13:06:23.011Z,36.35
2023-09-06T13:07:23.093Z,34.23
2023-09-06T13:08:23.211Z,36.66
2023-09-06T13:09:23.350Z,35.28
2023-09-06T13:10:23.364Z,34.33
2023-09-06T13:11:23.443Z,34.70
2023-09-06T13:12:23.536Z,35.17
2023-09-06T13:13:23.697Z,33.91
2023-09-06T13:14:23.728Z,35.44
2023-09-06T13:15:23.797Z,34.47
2023-09-06T13:16:24.017Z,33.99
2023-09-06T13:17:24.037Z,35.67
2023-09-06T13:18:24.157Z,35.38
2023-09-06T13:19:24.188Z,33.44
2023-09-06T13:20:24.209Z,35.28
2023-09-06T13:21:24.347Z,33.34
2023-09-06T13:22:24.397Z,37.15
2023-09-06T13:23:24.561Z,35.96
2023-09-06T13:24:24.610Z,34.78
2023-09-06T13:25:24.717Z,36.41
2023-09-06T13:26:24.788Z,33.52
2023-09-06T13:27:24.879Z,37.19
2023-09-06T13:28:24.996Z,35.31
2023-09-06T13:29:25.065Z,35.29
2023-09-06T13:30:25.225Z,35.37
2023-09-06T13:31:25.375Z,35.45
2023-09-06T13:32:25.339Z,33.84
2023-09-06T13:33:25.445Z,34.63
2023-09-06T13:34:25.572Z,35.58
2023-09-06T13:35:25.593Z,34.09
2023-09-06T13:36:25.641Z,34.12
2023-09-06T13:37:25.731Z,35.40
2023-09-06T13:38:25.812Z,35.09
2023-09-06T13:39:25.885Z,33.75
2023-09-06T13:40:25.985Z,34.62
2023-09-06T13:41:26.085Z,34.83
2023-09-06T13:42:26.218Z,35.11
2023-09-06T13:43:26.231Z,34.53
2023-09-06T13:44:26.286Z,34.39
2023-09-06T13:45:28.591Z,34.22
2023-09-06T13:46:27.045Z,36.25
2023-09-06T13:47:26.582Z,33.86
2023-09-06T13:48:26.811Z,33.98
2023-09-06T13:49:26.797Z,32.42
2023-09-06T13:50:26.887Z,34.33
2023-09-06T13:51:26.972Z,32.39
2023-09-06T13:52:26.988Z,35.48
2023-09-06T13:53:27.086Z,34.88
2023-09-06T13:54:27.137Z,33.81
2023-09-06T13:55:27.286Z,35.35
2023-09-06T13:56:27.361Z,33.69
2023-09-06T13:57:27.437Z,33.09
2023-09-06T13:58:27.551Z,34.13
2023-09-06T13:59:27.565Z,30.85
2023-09-06T14:00:27.704Z,32.21
2023-09-06T14:01:27.872Z,34.27
2023-09-06T14:02:28.006Z,34.07
2023-09-06T14:03:28.048Z,35.02
2023-09-06T14:04:28.165Z,34.33
2023-09-06T14:05:28.179Z,32.71
2023-09-06T14:06:28.225Z,35.83
2023-09-06T14:07:28.332Z,33.54
2023-09-06T14:08:28.696Z,36.16
2023-09-06T14:09:28.464Z,35.67
2023-09-06T14:10:28.549Z,34.81
2023-09-06T14:11:28.626Z,37.63
2023-09-06T14:12:28.730Z,33.57
2023-09-06T14:13:28.841Z,37.07
2023-09-06T14:14:28.909Z,37.18
2023-09-06T14:15:28.990Z,36.68
2023-09-06T14:16:29.127Z,36.48
2023-09-06T14:17:29.198Z,35.43
2023-09-06T14:18:29.619Z,35.16
2023-09-06T14:19:29.277Z,36.77
2023-09-06T14:20:29.540Z,39.84
2023-09-06T14:21:29.452Z,39.26
2023-09-06T14:22:29.546Z,43.62
2023-09-06T14:23:29.612Z,43.38
2023-09-06T14:24:29.671Z,44.58
2023-09-06T14:25:29.794Z,46.44
2023-09-06T14:26:29.851Z,47.55
2023-09-06T14:27:29.979Z,43.94
2023-09-06T14:28:30.396Z,46.02
2023-09-06T14:29:30.090Z,45.75
2023-09-06T14:30:30.178Z,47.32
2023-09-06T14:31:30.287Z,48.03
2023-09-06T14:32:30.421Z,49.13
2023-09-06T14:33:30.762Z,48.08
2023-09-06T14:34:30.494Z,49.48
2023-09-06T14:35:30.630Z,49.28
2023-09-06T14:36:30.683Z,46.35
2023-09-06T14:37:30.804Z,48.32
2023-09-06T14:38:31.073Z,49.60
2023-09-06T14:39:30.905Z,48.82
2023-09-06T14:40:30.991Z,47.24
2023-09-06T14:41:31.133Z,48.71
2023-09-06T14:42:31.196Z,48.25
2023-09-06T14:43:31.430Z,49.13
2023-09-06T14:44:31.400Z,49.13
2023-09-06T14:45:31.401Z,50.85
2023-09-06T14:46:31.531Z,48.35
2023-09-06T14:47:31.720Z,47.13
2023-09-06T14:48:32.102Z,47.74
2023-09-06T14:49:32.035Z,47.98
2023-09-06T14:50:31.965Z,50.46
2023-09-06T14:51:32.633Z,50.88
2023-09-06T14:52:32.046Z,47.95
2023-09-06T14:53:32.112Z,50.61
2023-09-06T14:54:32.173Z,49.21
2023-09-06T14:55:32.243Z,52.65
2023-09-06T14:56:36.449Z,52.36
2023-09-06T14:57:32.510Z,48.42
2023-09-06T14:58:32.822Z,49.08
2023-09-06T14:59:32.610Z,49.48
2023-09-06T15:00:32.661Z,50.78
2023-09-06T15:01:32.745Z,51.40
2023-09-06T15:02:32.930Z,51.62
2023-09-06T15:03:33.057Z,51.42
2023-09-06T15:04:32.972Z,49.65
2023-09-06T15:05:33.082Z,51.81
2023-09-06T15:06:47.993Z,49.97
2023-09-06T15:07:33.237Z,53.71
2023-09-06T15:08:33.573Z,53.02
2023-09-06T15:09:33.484Z,50.46
2023-09-06T15:10:33.708Z,53.61
2023-09-06T15:11:33.533Z,51.87
2023-09-06T15:12:33.633Z,56.10
2023-09-06T15:13:33.791Z,51.07
2023-09-06T15:14:33.807Z,53.44
2023-09-06T15:15:33.917Z,53.96
2023-09-06T15:16:33.975Z,54.36
2023-09-06T15:17:34.107Z,52.39
2023-09-06T15:18:34.726Z,51.92
2023-09-06T15:19:34.243Z,50.54
2023-09-06T15:20:34.324Z,51.50
2023-09-06T15:21:34.432Z,52.78
2023-09-06T15:22:39.182Z,52.58
2023-09-06T15:23:34.570Z,52.48
2023-09-06T15:24:34.619Z,51.79
2023-09-06T15:25:34.710Z,53.57
2023-09-06T15:26:34.833Z,54.06
2023-09-06T15:27:34.882Z,52.68
2023-09-06T15:28:35.002Z,54.48
2023-09-06T15:29:35.064Z,51.92
2023-09-06T15:30:35.139Z,54.36
2023-09-06T15:31:35.263Z,52.11
2023-09-06T15:32:35.290Z,51.82
2023-09-06T15:33:35.419Z,51.20
2023-09-06T15:34:35.462Z,51.50
2023-09-06T15:35:35.485Z,49.10
2023-09-06T15:36:35.650Z,48.71
2023-09-06T15:37:35.643Z,47.23
2023-09-06T15:38:35.741Z,48.32
2023-09-06T15:39:36.965Z,49.69
2023-09-06T15:40:35.881Z,50.81
2023-09-06T15:41:35.920Z,48.34
2023-09-06T15:42:36.077Z,50.29
2023-09-06T15:43:36.062Z,48.39
2023-09-06T15:44:36.786Z,48.81
2023-09-06T15:45:36.298Z,50.12
2023-09-06T15:46:36.472Z,50.12
2023-09-06T15:47:36.434Z,51.62
2023-09-06T15:48:36.529Z,52.04
2023-09-06T15:49:36.567Z,52.44
2023-09-06T15:50:37.356Z,52.53
2023-09-06T15:51:36.798Z,51.87
2023-09-06T15:52:36.789Z,51.37
2023-09-06T15:53:36.936Z,51.87
2023-09-06T15:54:36.947Z,52.66
2023-09-06T15:55:37.046Z,51.84
2023-09-06T15:56:37.207Z,52.83
2023-09-06T15:57:37.210Z,53.00
2023-09-06T15:58:37.267Z,51.82
2023-09-06T15:59:37.384Z,51.84
2023-09-06T16:00:37.473Z,52.56
2023-09-06T16:01:37.577Z,54.14
2023-09-06T16:02:37.777Z,52.06
2023-09-06T16:03:37.799Z,54.63
2023-09-06T16:04:37.873Z,53.75
2023-09-06T16:05:37.895Z,52.17
2023-09-06T16:06:37.941Z,54.83
2023-09-06T16:07:38.021Z,53.45
2023-09-06T16:08:38.200Z,53.35
2023-09-06T16:09:38.206Z,54.04
2023-09-06T16:10:38.276Z,53.64
2023-09-06T16:11:38.453Z,53.25
2023-09-06T16:12:38.630Z,52.95
2023-09-06T16:13:38.531Z,53.75
2023-09-06T16:14:38.654Z,53.94
2023-09-06T16:15:38.786Z,54.14
2023-09-06T16:16:39.060Z,54.63
2023-09-06T16:17:38.894Z,53.64
2023-09-06T16:18:38.935Z,53.64
2023-09-06T16:19:39.039Z,55.30
2023-09-06T16:20:39.126Z,54.41
2023-09-06T16:21:39.216Z,54.83
2023-09-06T16:22:39.303Z,55.33
2023-09-06T16:23:39.274Z,55.75
2023-09-06T16:24:39.359Z,54.46
2023-09-06T16:25:39.782Z,55.85
2023-09-06T16:26:39.670Z,57.23
2023-09-06T16:27:39.642Z,54.04
2023-09-06T16:28:39.711Z,55.62
2023-09-06T16:29:39.875Z,54.63
2023-09-06T16:30:40.085Z,54.71
2023-09-06T16:31:39.968Z,54.02
2023-09-06T16:32:40.234Z,53.92
2023-09-06T16:33:40.218Z,53.72
2023-09-06T16:34:40.225Z,53.50
2023-09-06T16:35:40.334Z,54.55
2023-09-06T16:36:40.442Z,52.68
2023-09-06T16:37:41.820Z,52.16
2023-09-06T16:38:40.623Z,50.85
2023-09-06T16:39:40.796Z,52.01
2023-09-06T16:40:40.736Z,51.42
2023-09-06T16:41:41.827Z,51.15
2023-09-06T16:42:41.172Z,51.77
2023-09-06T16:43:40.992Z,54.36
2023-09-06T16:44:41.160Z,53.27
2023-09-06T16:45:41.248Z,52.39
2023-09-06T16:46:41.384Z,52.85
2023-09-06T16:47:41.367Z,52.75
2023-09-06T16:48:41.460Z,52.06
2023-09-06T16:49:41.732Z,52.56
2023-09-06T16:50:41.717Z,52.23
2023-09-06T16:51:41.747Z,51.67
2023-09-06T16:52:41.891Z,48.45
2023-09-06T16:53:41.889Z,47.08
2023-09-06T16:54:41.995Z,45.34
2023-09-06T16:55:42.075Z,44.52
2023-09-06T16:56:42.096Z,43.91
2023-09-06T16:57:42.114Z,43.49
2023-09-06T16:58:42.183Z,44.49
2023-09-06T16:59:42.293Z,44.98
2023-09-06T17:00:42.768Z,44.32
2023-09-06T17:01:42.574Z,44.23
2023-09-06T17:02:42.576Z,44.64
2023-09-06T17:03:42.635Z,44.62
2023-09-06T17:04:42.713Z,43.91
2023-09-06T17:05:42.833Z,44.18
2023-09-06T17:06:42.916Z,42.79
2023-09-06T17:07:42.989Z,43.85
2023-09-06T17:08:43.069Z,43.67
2023-09-06T17:09:43.159Z,43.40
2023-09-06T17:10:43.239Z,44.10
2023-09-06T17:11:43.286Z,43.91
2023-09-06T17:12:43.376Z,44.01
2023-09-06T17:13:43.412Z,44.59
2023-09-06T17:14:43.506Z,44.40
2023-09-06T17:15:43.707Z,45.97
2023-09-06T17:16:45.130Z,45.57
2023-09-06T17:17:44.149Z,45.37
2023-09-06T17:18:44.053Z,45.67
2023-09-06T17:19:44.354Z,45.79
2023-09-06T17:20:44.309Z,46.23
2023-09-06T17:21:44.398Z,47.99
2023-09-06T17:22:44.514Z,52.70
2023-09-06T17:23:56.882Z,53.66
2023-09-06T17:24:44.628Z,55.68
2023-09-06T17:25:45.649Z,58.30
2023-09-06T17:26:44.805Z,59.94
2023-09-06T17:27:44.868Z,61.38
2023-09-06T17:28:44.833Z,61.31
2023-09-06T17:29:45.048Z,62.82
2023-09-06T17:30:45.070Z,63.75
2023-09-06T17:31:45.261Z,63.58
2023-09-06T17:32:45.392Z,65.00
2023-09-06T17:33:45.337Z,65.20
2023-09-06T17:34:45.229Z,66.91
2023-09-06T17:35:45.262Z,68.04
2023-09-06T17:36:46.335Z,67.97
2023-09-06T17:37:45.412Z,67.67
2023-09-06T17:38:45.486Z,68.30
2023-09-06T17:39:45.583Z,68.40
2023-09-06T17:40:45.881Z,69.09
2023-09-06T17:41:45.769Z,69.62
2023-09-06T17:42:45.874Z,69.92
2023-09-06T17:43:45.901Z,70.36
2023-09-06T17:44:45.956Z,70.65
2023-09-06T17:45:46.100Z,71.25
2023-09-06T17:46:46.160Z,71.28
2023-09-06T17:47:46.360Z,71.48
2023-09-06T17:48:46.473Z,71.28
2023-09-06T17:49:46.403Z,72.71
2023-09-06T17:50:46.581Z,71.91
2023-09-06T17:51:46.569Z,72.44
2023-09-06T17:52:47.252Z,73.14
2023-09-06T17:53:46.719Z,73.57
2023-09-06T17:54:46.819Z,72.68
2023-09-06T17:55:47.168Z,73.57
2023-09-06T17:56:47.018Z,73.91
2023-09-06T17:57:47.188Z,73.61
2023-09-06T17:58:47.144Z,74.51
2023-09-06T17:59:47.207Z,73.71
2023-09-06T18:00:47.273Z,73.85
2023-09-06T18:01:47.473Z,74.04
2023-09-06T18:02:47.620Z,72.65
2023-09-06T18:03:47.779Z,72.75
2023-09-06T18:04:47.807Z,73.44
2023-09-06T18:05:48.085Z,74.44
2023-09-06T18:06:47.801Z,73.94
2023-09-06T18:07:47.849Z,74.04
2023-09-06T18:08:47.970Z,74.58
2023-09-06T18:09:48.000Z,74.48
2023-09-06T18:10:48.107Z,73.68
2023-09-06T18:11:48.200Z,75.21
2023-09-06T18:12:48.244Z,75.21
2023-09-06T18:13:48.335Z,75.41
2023-09-06T18:14:48.406Z,75.25
2023-09-06T18:15:48.544Z,75.65
2023-09-06T18:16:48.618Z,75.65
2023-09-06T18:17:48.795Z,75.89
2023-09-06T18:18:49.940Z,76.38
2023-09-06T18:19:48.808Z,76.78
2023-09-06T18:20:48.911Z,76.92
2023-09-06T18:21:48.981Z,77.12
2023-09-06T18:22:49.047Z,76.82
2023-09-06T18:23:49.327Z,77.02
2023-09-06T18:24:49.170Z,76.95
2023-09-06T18:25:49.287Z,76.76
2023-09-06T18:27:02.156Z,77.06
2023-09-06T18:27:49.397Z,77.36
2023-09-06T18:28:49.819Z,77.56
2023-09-06T18:29:49.555Z,77.79
2023-09-06T18:30:49.706Z,77.29
2023-09-06T18:31:49.826Z,77.59
2023-09-06T18:32:49.861Z,77.99
2023-09-06T18:33:49.962Z,78.29
2023-09-06T18:34:49.994Z,78.33
2023-09-06T18:35:50.050Z,78.43
2023-09-06T18:36:50.139Z,78.83
2023-09-06T18:37:50.324Z,78.63
2023-09-06T18:38:50.306Z,78.83
2023-09-06T18:39:50.426Z,78.73
2023-09-06T18:40:50.969Z,79.13
2023-09-06T18:41:50.563Z,79.43
2023-09-06T18:42:50.700Z,79.03
2023-09-06T18:43:50.795Z,79.36
2023-09-06T18:44:50.828Z,79.57
2023-09-06T18:45:50.866Z,79.86
2023-09-06T18:46:51.101Z,79.86
2023-09-06T18:47:51.094Z,79.77
2023-09-06T18:48:51.110Z,79.57
2023-09-06T18:49:51.226Z,80.27
2023-09-06T18:50:51.492Z,79.86
2023-09-06T18:51:51.363Z,79.67
2023-09-06T18:52:51.472Z,79.97
2023-09-06T18:53:51.537Z,80.21
2023-09-06T18:54:51.578Z,78.80
2023-09-06T18:55:51.718Z,79.21
2023-09-06T18:56:51.770Z,79.30
2023-09-06T18:58:04.821Z,80.11
2023-09-06T18:58:51.919Z,80.30
